sensor_id;sensor_type;location;lat;lon;timestamp;pressure;altitude;pressure_sealevel;temperature
6454;BMP180;3260;52.438;13.502;2023-04-24T04:02:23;99512.00;;;13.60
6454;BMP180;3260;52.438;13.502;2023-04-24T04:04:52;99516.00;;;13.10
6454;BMP180;3260;52.438;13.502;2023-04-24T04:07:20;99519.00;;;13.20
6454;BMP180;3260;52.438;13.502;2023-04-24T04:09:48;99510.00;;;13.30
6454;BMP180;3260;52.438;13.502;2023-04-24T04:12:17;99507.00;;;13.20
6454;BMP180;3260;52.438;13.502;2023-04-24T04:14:45;99489.00;;;13.60
6454;BMP180;3260;52.438;13.502;2023-04-24T04:17:13;99515.00;;;13.60
6454;BMP180;3260;52.438;13.502;2023-04-24T04:19:43;99513.00;;;13.50
6454;BMP180;3260;52.438;13.502;2023-04-24T04:22:11;99504.00;;;13.30
6454;BMP180;3260;52.438;13.502;2023-04-24T04:24:40;99505.00;;;13.10
6454;BMP180;3260;52.438;13.502;2023-04-24T04:27:08;99516.00;;;13.30
6454;BMP180;3260;52.438;13.502;2023-04-24T04:29:36;99510.00;;;13.60
6454;BMP180;3260;52.438;13.502;2023-04-24T04:32:05;99507.00;;;13.60
6454;BMP180;3260;52.438;13.502;2023-04-24T04:34:34;99513.00;;;13.20
6454;BMP180;3260;52.438;13.502;2023-04-24T04:37:05;99502.00;;;13.40
6454;BMP180;3260;52.438;13.502;2023-04-24T04:39:34;99509.00;;;13.60
6454;BMP180;3260;52.438;13.502;2023-04-24T04:42:02;99518.00;;;13.20
6454;BMP180;3260;52.438;13.502;2023-04-24T04:44:31;99516.00;;;13.70
6454;BMP180;3260;52.438;13.502;2023-04-24T04:46:59;99524.00;;;13.50
6454;BMP180;3260;52.438;13.502;2023-04-24T04:49:30;99518.00;;;13.60
6454;BMP180;3260;52.438;13.502;2023-04-24T04:51:59;99527.00;;;14.20
6454;BMP180;3260;52.438;13.502;2023-04-24T04:54:28;99526.00;;;14.00
6454;BMP180;3260;52.438;13.502;2023-04-24T04:56:56;99530.00;;;14.00
6454;BMP180;3260;52.438;13.502;2023-04-24T04:59:28;99534.00;;;14.10
6454;BMP180;3260;52.438;13.502;2023-04-24T05:01:56;99530.00;;;14.10
6454;BMP180;3260;52.438;13.502;2023-04-24T05:04:24;99527.00;;;14.30
6454;BMP180;3260;52.438;13.502;2023-04-24T05:06:53;99529.00;;;14.20
6454;BMP180;3260;52.438;13.502;2023-04-24T05:09:21;99525.00;;;14.10
6454;BMP180;3260;52.438;13.502;2023-04-24T05:11:51;99524.00;;;14.00
6454;BMP180;3260;52.438;13.502;2023-04-24T05:14:19;99533.00;;;14.10
6454;BMP180;3260;52.438;13.502;2023-04-24T05:16:47;99526.00;;;14.10
6454;BMP180;3260;52.438;13.502;2023-04-24T05:19:16;99533.00;;;14.20
6454;BMP180;3260;52.438;13.502;2023-04-24T05:21:44;99524.00;;;14.40
6454;BMP180;3260;52.438;13.502;2023-04-24T05:24:12;99517.00;;;14.00
6454;BMP180;3260;52.438;13.502;2023-04-24T05:26:40;99529.00;;;14.40
6454;BMP180;3260;52.438;13.502;2023-04-24T05:29:10;99519.00;;;14.00
6454;BMP180;3260;52.438;13.502;2023-04-24T05:31:38;99524.00;;;14.00
6454;BMP180;3260;52.438;13.502;2023-04-24T05:34:07;99528.00;;;13.90
6454;BMP180;3260;52.438;13.502;2023-04-24T05:36:35;99531.00;;;13.80
6454;BMP180;3260;52.438;13.502;2023-04-24T05:39:03;99535.00;;;13.60
6454;BMP180;3260;52.438;13.502;2023-04-24T05:41:34;99536.00;;;13.50
6454;BMP180;3260;52.438;13.502;2023-04-24T05:44:02;99535.00;;;13.60
6454;BMP180;3260;52.438;13.502;2023-04-24T05:46:32;99538.00;;;13.60
6454;BMP180;3260;52.438;13.502;2023-04-24T05:49:00;99541.00;;;13.70
6454;BMP180;3260;52.438;13.502;2023-04-24T05:51:29;99535.00;;;13.70
6454;BMP180;3260;52.438;13.502;2023-04-24T05:53:57;99528.00;;;13.60
6454;BMP180;3260;52.438;13.502;2023-04-24T05:56:25;99538.00;;;13.60
6454;BMP180;3260;52.438;13.502;2023-04-24T05:58:53;99524.00;;;13.60
6454;BMP180;3260;52.438;13.502;2023-04-24T06:01:22;99544.00;;;13.80
6454;BMP180;3260;52.438;13.502;2023-04-24T06:03:53;99550.00;;;13.70
6454;BMP180;3260;52.438;13.502;2023-04-24T06:06:21;99546.00;;;13.60
6454;BMP180;3260;52.438;13.502;2023-04-24T06:08:50;99545.00;;;14.00
6454;BMP180;3260;52.438;13.502;2023-04-24T06:11:18;99556.00;;;14.10
6454;BMP180;3260;52.438;13.502;2023-04-24T06:13:47;99557.00;;;14.00
6454;BMP180;3260;52.438;13.502;2023-04-24T06:16:15;99566.00;;;14.10
6454;BMP180;3260;52.438;13.502;2023-04-24T06:18:43;99557.00;;;14.10
6454;BMP180;3260;52.438;13.502;2023-04-24T06:21:16;99570.00;;;14.40
6454;BMP180;3260;52.438;13.502;2023-04-24T06:23:45;99565.00;;;14.90
6454;BMP180;3260;52.438;13.502;2023-04-24T06:26:13;99568.00;;;14.60
6454;BMP180;3260;52.438;13.502;2023-04-24T06:28:41;99565.00;;;14.50
6454;BMP180;3260;52.438;13.502;2023-04-24T06:31:10;99561.00;;;14.30
6454;BMP180;3260;52.438;13.502;2023-04-24T06:33:38;99560.00;;;14.40
6454;BMP180;3260;52.438;13.502;2023-04-24T06:36:07;99573.00;;;14.30
6454;BMP180;3260;52.438;13.502;2023-04-24T06:38:36;99569.00;;;14.90
6454;BMP180;3260;52.438;13.502;2023-04-24T06:41:04;99582.00;;;14.90
6454;BMP180;3260;52.438;13.502;2023-04-24T06:43:33;99565.00;;;15.30
6454;BMP180;3260;52.438;13.502;2023-04-24T06:46:01;99577.00;;;15.10
6454;BMP180;3260;52.438;13.502;2023-04-24T06:48:30;99573.00;;;15.50
6454;BMP180;3260;52.438;13.502;2023-04-24T06:50:59;99581.00;;;15.50
6454;BMP180;3260;52.438;13.502;2023-04-24T06:53:28;99578.00;;;15.40
6454;BMP180;3260;52.438;13.502;2023-04-24T06:55:58;99578.00;;;15.70
6454;BMP180;3260;52.438;13.502;2023-04-24T06:58:26;99581.00;;;16.00
6454;BMP180;3260;52.438;13.502;2023-04-24T07:00:55;99573.00;;;15.80
6454;BMP180;3260;52.438;13.502;2023-04-24T07:03:23;99571.00;;;15.80
6454;BMP180;3260;52.438;13.502;2023-04-24T07:05:52;99555.00;;;15.60
6454;BMP180;3260;52.438;13.502;2023-04-24T07:08:20;99562.00;;;15.70
6454;BMP180;3260;52.438;13.502;2023-04-24T07:10:50;99550.00;;;15.70
6454;BMP180;3260;52.438;13.502;2023-04-24T07:13:19;99563.00;;;15.90
6454;BMP180;3260;52.438;13.502;2023-04-24T07:15:49;99562.00;;;15.90
6454;BMP180;3260;52.438;13.502;2023-04-24T07:18:18;99561.00;;;15.70
6454;BMP180;3260;52.438;13.502;2023-04-24T07:20:46;99555.00;;;15.90
6454;BMP180;3260;52.438;13.502;2023-04-24T07:23:14;99563.00;;;16.10
6454;BMP180;3260;52.438;13.502;2023-04-24T07:25:42;99563.00;;;16.00
6454;BMP180;3260;52.438;13.502;2023-04-24T07:28:11;99573.00;;;16.10
6454;BMP180;3260;52.438;13.502;2023-04-24T07:30:40;99578.00;;;16.70
6454;BMP180;3260;52.438;13.502;2023-04-24T07:33:09;99580.00;;;16.60
6454;BMP180;3260;52.438;13.502;2023-04-24T07:35:40;99573.00;;;16.40
6454;BMP180;3260;52.438;13.502;2023-04-24T07:38:08;99581.00;;;16.50
6454;BMP180;3260;52.438;13.502;2023-04-24T07:40:36;99582.00;;;16.20
6454;BMP180;3260;52.438;13.502;2023-04-24T07:43:04;99574.00;;;16.30
6454;BMP180;3260;52.438;13.502;2023-04-24T07:45:33;99577.00;;;16.40
6454;BMP180;3260;52.438;13.502;2023-04-24T07:48:05;99572.00;;;16.80
6454;BMP180;3260;52.438;13.502;2023-04-24T07:50:35;99573.00;;;17.10
6454;BMP180;3260;52.438;13.502;2023-04-24T07:53:04;99572.00;;;17.30
6454;BMP180;3260;52.438;13.502;2023-04-24T07:55:32;99578.00;;;17.20
6454;BMP180;3260;52.438;13.502;2023-04-24T07:58:00;99571.00;;;17.20
6454;BMP180;3260;52.438;13.502;2023-04-24T08:00:29;99570.00;;;16.60
6454;BMP180;3260;52.438;13.502;2023-04-24T08:02:57;99568.00;;;16.40
6454;BMP180;3260;52.438;13.502;2023-04-24T08:05:27;99577.00;;;16.50
6454;BMP180;3260;52.438;13.502;2023-04-24T08:07:57;99579.00;;;16.90
6454;BMP180;3260;52.438;13.502;2023-04-24T08:10:26;99569.00;;;16.80
6454;BMP180;3260;52.438;13.502;2023-04-24T08:12:54;99581.00;;;16.90
6454;BMP180;3260;52.438;13.502;2023-04-24T08:15:23;99579.00;;;17.00
6454;BMP180;3260;52.438;13.502;2023-04-24T08:17:52;99574.00;;;17.20
6454;BMP180;3260;52.438;13.502;2023-04-24T08:20:20;99576.00;;;17.20
6454;BMP180;3260;52.438;13.502;2023-04-24T08:22:50;99575.00;;;17.50
6454;BMP180;3260;52.438;13.502;2023-04-24T08:25:18;99580.00;;;18.00
6454;BMP180;3260;52.438;13.502;2023-04-24T08:27:47;99575.00;;;18.60
6454;BMP180;3260;52.438;13.502;2023-04-24T08:30:16;99580.00;;;18.90
6454;BMP180;3260;52.438;13.502;2023-04-24T08:32:44;99571.00;;;18.20
6454;BMP180;3260;52.438;13.502;2023-04-24T08:35:12;99568.00;;;18.30
6454;BMP180;3260;52.438;13.502;2023-04-24T08:37:41;99566.00;;;18.20
6454;BMP180;3260;52.438;13.502;2023-04-24T08:40:14;99569.00;;;18.80
6454;BMP180;3260;52.438;13.502;2023-04-24T08:42:43;99563.00;;;18.60
6454;BMP180;3260;52.438;13.502;2023-04-24T08:45:13;99575.00;;;18.40
6454;BMP180;3260;52.438;13.502;2023-04-24T08:47:42;99577.00;;;18.80
6454;BMP180;3260;52.438;13.502;2023-04-24T08:50:12;99557.00;;;19.20
6454;BMP180;3260;52.438;13.502;2023-04-24T08:52:42;99584.00;;;18.90
6454;BMP180;3260;52.438;13.502;2023-04-24T08:55:12;99581.00;;;18.70
6454;BMP180;3260;52.438;13.502;2023-04-24T08:57:42;99587.00;;;18.80
6454;BMP180;3260;52.438;13.502;2023-04-24T09:00:13;99586.00;;;18.50
6454;BMP180;3260;52.438;13.502;2023-04-24T09:02:42;99575.00;;;18.10
6454;BMP180;3260;52.438;13.502;2023-04-24T09:05:13;99586.00;;;18.50
6454;BMP180;3260;52.438;13.502;2023-04-24T09:07:44;99594.00;;;19.30
6454;BMP180;3260;52.438;13.502;2023-04-24T09:10:15;99577.00;;;18.90
6454;BMP180;3260;52.438;13.502;2023-04-24T09:12:44;99603.00;;;19.30
6454;BMP180;3260;52.438;13.502;2023-04-24T09:15:14;99602.00;;;19.00
6454;BMP180;3260;52.438;13.502;2023-04-24T09:17:43;99592.00;;;19.10
6454;BMP180;3260;52.438;13.502;2023-04-24T09:20:11;99593.00;;;18.50
6454;BMP180;3260;52.438;13.502;2023-04-24T09:22:40;99576.00;;;18.20
6454;BMP180;3260;52.438;13.502;2023-04-24T09:25:09;99600.00;;;18.50
6454;BMP180;3260;52.438;13.502;2023-04-24T09:27:44;99578.00;;;18.00
6454;BMP180;3260;52.438;13.502;2023-04-24T09:30:20;99590.00;;;18.40
6454;BMP180;3260;52.438;13.502;2023-04-24T09:32:49;99590.00;;;18.40
6454;BMP180;3260;52.438;13.502;2023-04-24T09:35:20;99591.00;;;18.50
6454;BMP180;3260;52.438;13.502;2023-04-24T09:37:48;99597.00;;;18.90
6454;BMP180;3260;52.438;13.502;2023-04-24T09:40:18;99587.00;;;18.30
6454;BMP180;3260;52.438;13.502;2023-04-24T09:42:53;99592.00;;;18.50
6454;BMP180;3260;52.438;13.502;2023-04-24T09:45:27;99595.00;;;18.40
6454;BMP180;3260;52.438;13.502;2023-04-24T09:47:55;99598.00;;;18.30
6454;BMP180;3260;52.438;13.502;2023-04-24T09:50:24;99602.00;;;18.60
6454;BMP180;3260;52.438;13.502;2023-04-24T09:52:59;99589.00;;;19.00
6454;BMP180;3260;52.438;13.502;2023-04-24T09:55:30;99586.00;;;18.60
6454;BMP180;3260;52.438;13.502;2023-04-24T09:58:01;99590.00;;;18.60
6454;BMP180;3260;52.438;13.502;2023-04-24T10:00:33;99585.00;;;18.70
6454;BMP180;3260;52.438;13.502;2023-04-24T10:03:04;99587.00;;;18.50
6454;BMP180;3260;52.438;13.502;2023-04-24T10:05:36;99585.00;;;18.90
6454;BMP180;3260;52.438;13.502;2023-04-24T10:08:07;99586.00;;;18.60
6454;BMP180;3260;52.438;13.502;2023-04-24T10:10:40;99586.00;;;18.20
6454;BMP180;3260;52.438;13.502;2023-04-24T10:13:12;99578.00;;;18.80
6454;BMP180;3260;52.438;13.502;2023-04-24T10:15:42;99590.00;;;19.60
6454;BMP180;3260;52.438;13.502;2023-04-24T10:18:11;99570.00;;;19.30
6454;BMP180;3260;52.438;13.502;2023-04-24T10:20:40;99604.00;;;19.00
6454;BMP180;3260;52.438;13.502;2023-04-24T10:23:09;99595.00;;;18.80
6454;BMP180;3260;52.438;13.502;2023-04-24T10:25:37;99597.00;;;19.30
6454;BMP180;3260;52.438;13.502;2023-04-24T10:28:05;99593.00;;;19.20
6454;BMP180;3260;52.438;13.502;2023-04-24T10:30:43;99597.00;;;20.00
6454;BMP180;3260;52.438;13.502;2023-04-24T10:33:11;99587.00;;;20.30
6454;BMP180;3260;52.438;13.502;2023-04-24T10:35:44;99601.00;;;21.00
6454;BMP180;3260;52.438;13.502;2023-04-24T10:38:21;99597.00;;;20.70
6454;BMP180;3260;52.438;13.502;2023-04-24T10:40:51;99597.00;;;20.60
6454;BMP180;3260;52.438;13.502;2023-04-24T10:43:19;99586.00;;;20.30
6454;BMP180;3260;52.438;13.502;2023-04-24T10:46:03;99573.00;;;19.80
6454;BMP180;3260;52.438;13.502;2023-04-24T10:48:32;99595.00;;;19.90
6454;BMP180;3260;52.438;13.502;2023-04-24T10:51:01;99585.00;;;19.80
6454;BMP180;3260;52.438;13.502;2023-04-24T10:53:30;99557.00;;;19.70
6454;BMP180;3260;52.438;13.502;2023-04-24T10:56:03;99582.00;;;19.10
6454;BMP180;3260;52.438;13.502;2023-04-24T10:58:40;99589.00;;;19.00
6454;BMP180;3260;52.438;13.502;2023-04-24T11:01:25;99585.00;;;19.90
6454;BMP180;3260;52.438;13.502;2023-04-24T11:04:00;99579.00;;;19.80
6454;BMP180;3260;52.438;13.502;2023-04-24T11:06:30;99562.00;;;20.00
6454;BMP180;3260;52.438;13.502;2023-04-24T11:09:04;99565.00;;;20.50
6454;BMP180;3260;52.438;13.502;2023-04-24T11:11:34;99572.00;;;22.00
6454;BMP180;3260;52.438;13.502;2023-04-24T11:14:06;99580.00;;;22.70
6454;BMP180;3260;52.438;13.502;2023-04-24T11:16:42;99570.00;;;23.00
6454;BMP180;3260;52.438;13.502;2023-04-24T11:19:21;99569.00;;;22.60
6454;BMP180;3260;52.438;13.502;2023-04-24T11:21:59;99560.00;;;22.00
6454;BMP180;3260;52.438;13.502;2023-04-24T11:24:37;99570.00;;;20.00
6454;BMP180;3260;52.438;13.502;2023-04-24T11:27:12;99576.00;;;19.70
6454;BMP180;3260;52.438;13.502;2023-04-24T11:29:44;99581.00;;;19.20
6454;BMP180;3260;52.438;13.502;2023-04-24T11:32:29;99602.00;;;18.50
6454;BMP180;3260;52.438;13.502;2023-04-24T11:34:59;99625.00;;;16.60
6454;BMP180;3260;52.438;13.502;2023-04-24T11:37:33;99629.00;;;14.80
6454;BMP180;3260;52.438;13.502;2023-04-24T11:40:03;99621.00;;;14.10
6454;BMP180;3260;52.438;13.502;2023-04-24T11:42:37;99597.00;;;14.00
6454;BMP180;3260;52.438;13.502;2023-04-24T11:45:12;99607.00;;;14.50
6454;BMP180;3260;52.438;13.502;2023-04-24T11:47:43;99614.00;;;15.10
6454;BMP180;3260;52.438;13.502;2023-04-24T11:50:14;99605.00;;;15.70
6454;BMP180;3260;52.438;13.502;2023-04-24T11:52:45;99609.00;;;16.40
6454;BMP180;3260;52.438;13.502;2023-04-24T11:55:25;99597.00;;;17.90
6454;BMP180;3260;52.438;13.502;2023-04-24T11:57:58;99602.00;;;19.10
6454;BMP180;3260;52.438;13.502;2023-04-24T12:00:29;99604.00;;;18.60
6454;BMP180;3260;52.438;13.502;2023-04-24T12:03:07;99597.00;;;18.20
6454;BMP180;3260;52.438;13.502;2023-04-24T12:05:37;99592.00;;;20.00
6454;BMP180;3260;52.438;13.502;2023-04-24T12:08:06;99604.00;;;22.40
6454;BMP180;3260;52.438;13.502;2023-04-24T12:10:35;99593.00;;;21.90
6454;BMP180;3260;52.438;13.502;2023-04-24T12:13:03;99595.00;;;20.70
6454;BMP180;3260;52.438;13.502;2023-04-24T12:15:32;99585.00;;;19.90
6454;BMP180;3260;52.438;13.502;2023-04-24T12:18:00;99586.00;;;18.80
6454;BMP180;3260;52.438;13.502;2023-04-24T12:20:32;99593.00;;;21.40
6454;BMP180;3260;52.438;13.502;2023-04-24T12:23:01;99596.00;;;23.90
6454;BMP180;3260;52.438;13.502;2023-04-24T12:25:32;99585.00;;;23.50
6454;BMP180;3260;52.438;13.502;2023-04-24T12:28:11;99589.00;;;22.50
6454;BMP180;3260;52.438;13.502;2023-04-24T12:30:42;99562.00;;;22.20
6454;BMP180;3260;52.438;13.502;2023-04-24T12:33:12;99587.00;;;21.60
6454;BMP180;3260;52.438;13.502;2023-04-24T12:35:41;99578.00;;;20.80
6454;BMP180;3260;52.438;13.502;2023-04-24T12:38:12;99588.00;;;22.40
6454;BMP180;3260;52.438;13.502;2023-04-24T12:40:41;99573.00;;;23.20
6454;BMP180;3260;52.438;13.502;2023-04-24T12:43:14;99569.00;;;22.20
6454;BMP180;3260;52.438;13.502;2023-04-24T12:45:43;99563.00;;;21.60
6454;BMP180;3260;52.438;13.502;2023-04-24T12:48:12;99553.00;;;20.40
6454;BMP180;3260;52.438;13.502;2023-04-24T12:50:43;99552.00;;;20.50
6454;BMP180;3260;52.438;13.502;2023-04-24T12:53:14;99565.00;;;20.80
6454;BMP180;3260;52.438;13.502;2023-04-24T12:55:42;99552.00;;;21.10
6454;BMP180;3260;52.438;13.502;2023-04-24T12:58:11;99563.00;;;21.60
6454;BMP180;3260;52.438;13.502;2023-04-24T13:00:39;99478.00;;;21.50
6454;BMP180;3260;52.438;13.502;2023-04-24T13:03:10;99562.00;;;22.60
6454;BMP180;3260;52.438;13.502;2023-04-24T13:05:42;99552.00;;;22.10
6454;BMP180;3260;52.438;13.502;2023-04-24T13:08:10;99595.00;;;22.40
6454;BMP180;3260;52.438;13.502;2023-04-24T13:10:40;99581.00;;;21.70
6454;BMP180;3260;52.438;13.502;2023-04-24T13:13:08;99547.00;;;21.30
6454;BMP180;3260;52.438;13.502;2023-04-24T13:15:37;99566.00;;;21.40
6454;BMP180;3260;52.438;13.502;2023-04-24T13:18:05;99562.00;;;24.80
6454;BMP180;3260;52.438;13.502;2023-04-24T13:20:33;99576.00;;;24.90
6454;BMP180;3260;52.438;13.502;2023-04-24T13:23:03;99582.00;;;25.00
6454;BMP180;3260;52.438;13.502;2023-04-24T13:25:36;99576.00;;;25.90
6454;BMP180;3260;52.438;13.502;2023-04-24T13:28:06;99539.00;;;24.50
6454;BMP180;3260;52.438;13.502;2023-04-24T13:30:34;99552.00;;;23.00
6454;BMP180;3260;52.438;13.502;2023-04-24T13:33:02;99557.00;;;25.50
6454;BMP180;3260;52.438;13.502;2023-04-24T13:35:31;99567.00;;;26.60
6454;BMP180;3260;52.438;13.502;2023-04-24T13:37:59;99579.00;;;25.70
6454;BMP180;3260;52.438;13.502;2023-04-24T13:40:29;99551.00;;;26.60
6454;BMP180;3260;52.438;13.502;2023-04-24T13:42:57;99568.00;;;27.00
6454;BMP180;3260;52.438;13.502;2023-04-24T13:45:26;99562.00;;;27.60
6454;BMP180;3260;52.438;13.502;2023-04-24T13:47:54;99551.00;;;27.40
6454;BMP180;3260;52.438;13.502;2023-04-24T13:50:23;99550.00;;;26.50
6454;BMP180;3260;52.438;13.502;2023-04-24T13:52:52;99553.00;;;26.60
6454;BMP180;3260;52.438;13.502;2023-04-24T13:55:20;99552.00;;;29.50
6454;BMP180;3260;52.438;13.502;2023-04-24T13:57:51;99562.00;;;28.70
6454;BMP180;3260;52.438;13.502;2023-04-24T14:00:21;99563.00;;;28.80
6454;BMP180;3260;52.438;13.502;2023-04-24T14:02:50;99577.00;;;26.40
6454;BMP180;3260;52.438;13.502;2023-04-24T14:05:19;99525.00;;;28.50
6454;BMP180;3260;52.438;13.502;2023-04-24T14:07:48;99568.00;;;26.80
6454;BMP180;3260;52.438;13.502;2023-04-24T14:10:17;99569.00;;;28.00
6454;BMP180;3260;52.438;13.502;2023-04-24T14:12:46;99572.00;;;28.00
6454;BMP180;3260;52.438;13.502;2023-04-24T14:15:15;99569.00;;;27.50
6454;BMP180;3260;52.438;13.502;2023-04-24T14:17:43;99568.00;;;27.30
6454;BMP180;3260;52.438;13.502;2023-04-24T14:20:12;99565.00;;;26.40
6454;BMP180;3260;52.438;13.502;2023-04-24T14:22:40;99556.00;;;23.80
6454;BMP180;3260;52.438;13.502;2023-04-24T14:25:09;99549.00;;;25.00
6454;BMP180;3260;52.438;13.502;2023-04-24T14:27:37;99548.00;;;28.10
6454;BMP180;3260;52.438;13.502;2023-04-24T14:30:08;99562.00;;;28.30
6454;BMP180;3260;52.438;13.502;2023-04-24T14:32:38;99565.00;;;27.90
6454;BMP180;3260;52.438;13.502;2023-04-24T14:35:08;99554.00;;;28.90
6454;BMP180;3260;52.438;13.502;2023-04-24T14:37:36;99593.00;;;27.60
6454;BMP180;3260;52.438;13.502;2023-04-24T14:40:08;99580.00;;;27.00
6454;BMP180;3260;52.438;13.502;2023-04-24T14:42:57;99580.00;;;28.60
6454;BMP180;3260;52.438;13.502;2023-04-24T14:45:25;99576.00;;;28.30
6454;BMP180;3260;52.438;13.502;2023-04-24T14:47:57;99553.00;;;28.00
6454;BMP180;3260;52.438;13.502;2023-04-24T14:50:25;99577.00;;;27.60
6454;BMP180;3260;52.438;13.502;2023-04-24T14:52:55;99586.00;;;27.00
6454;BMP180;3260;52.438;13.502;2023-04-24T14:55:24;99569.00;;;25.10
6454;BMP180;3260;52.438;13.502;2023-04-24T14:57:53;99574.00;;;26.10
6454;BMP180;3260;52.438;13.502;2023-04-24T15:00:22;99582.00;;;26.50
6454;BMP180;3260;52.438;13.502;2023-04-24T15:02:52;99572.00;;;26.50
6454;BMP180;3260;52.438;13.502;2023-04-24T15:05:22;99586.00;;;25.20
6454;BMP180;3260;52.438;13.502;2023-04-24T15:07:51;99599.00;;;25.30
6454;BMP180;3260;52.438;13.502;2023-04-24T15:10:19;99579.00;;;23.30
6454;BMP180;3260;52.438;13.502;2023-04-24T15:12:49;99597.00;;;21.90
6454;BMP180;3260;52.438;13.502;2023-04-24T15:15:18;99608.00;;;21.00
6454;BMP180;3260;52.438;13.502;2023-04-24T15:17:46;99588.00;;;19.70
6454;BMP180;3260;52.438;13.502;2023-04-24T15:20:14;99576.00;;;19.90
6454;BMP180;3260;52.438;13.502;2023-04-24T15:22:44;99587.00;;;21.50
6454;BMP180;3260;52.438;13.502;2023-04-24T15:25:13;99587.00;;;22.80
6454;BMP180;3260;52.438;13.502;2023-04-24T15:27:42;99582.00;;;22.20
6454;BMP180;3260;52.438;13.502;2023-04-24T15:30:12;99595.00;;;23.30
6454;BMP180;3260;52.438;13.502;2023-04-24T15:32:40;99619.00;;;23.70
6454;BMP180;3260;52.438;13.502;2023-04-24T15:35:10;99603.00;;;22.60
6454;BMP180;3260;52.438;13.502;2023-04-24T15:37:38;99624.00;;;21.90
6454;BMP180;3260;52.438;13.502;2023-04-24T15:40:09;99593.00;;;20.20
6454;BMP180;3260;52.438;13.502;2023-04-24T15:42:41;99602.00;;;19.30
6454;BMP180;3260;52.438;13.502;2023-04-24T15:45:10;99619.00;;;19.70
6454;BMP180;3260;52.438;13.502;2023-04-24T15:47:39;99589.00;;;18.30
6454;BMP180;3260;52.438;13.502;2023-04-24T15:50:09;99599.00;;;18.40
6454;BMP180;3260;52.438;13.502;2023-04-24T15:52:40;99599.00;;;18.20
6454;BMP180;3260;52.438;13.502;2023-04-24T15:55:11;99569.00;;;18.00
6454;BMP180;3260;52.438;13.502;2023-04-24T15:57:39;99604.00;;;17.80
6454;BMP180;3260;52.438;13.502;2023-04-24T16:00:09;99604.00;;;17.80
6454;BMP180;3260;52.438;13.502;2023-04-24T16:02:38;99603.00;;;18.00
6454;BMP180;3260;52.438;13.502;2023-04-24T16:05:07;99611.00;;;17.80
6454;BMP180;3260;52.438;13.502;2023-04-24T16:07:37;99605.00;;;17.60
6454;BMP180;3260;52.438;13.502;2023-04-24T16:10:07;99618.00;;;18.00
6454;BMP180;3260;52.438;13.502;2023-04-24T16:12:37;99601.00;;;17.30
6454;BMP180;3260;52.438;13.502;2023-04-24T16:15:06;99619.00;;;17.40
6454;BMP180;3260;52.438;13.502;2023-04-24T16:17:35;99599.00;;;16.90
6454;BMP180;3260;52.438;13.502;2023-04-24T16:20:05;99615.00;;;16.60
6454;BMP180;3260;52.438;13.502;2023-04-24T16:22:33;99608.00;;;17.00
6454;BMP180;3260;52.438;13.502;2023-04-24T16:25:02;99599.00;;;16.80
6454;BMP180;3260;52.438;13.502;2023-04-24T16:27:31;99602.00;;;16.90
6454;BMP180;3260;52.438;13.502;2023-04-24T16:30:01;99621.00;;;17.00
6454;BMP180;3260;52.438;13.502;2023-04-24T16:32:29;99611.00;;;16.70
6454;BMP180;3260;52.438;13.502;2023-04-24T16:34:58;99616.00;;;16.60
6454;BMP180;3260;52.438;13.502;2023-04-24T16:37:28;99624.00;;;16.40
6454;BMP180;3260;52.438;13.502;2023-04-24T16:39:56;99647.00;;;16.30
6454;BMP180;3260;52.438;13.502;2023-04-24T16:42:24;99612.00;;;16.30
6454;BMP180;3260;52.438;13.502;2023-04-24T16:44:52;99636.00;;;16.20
6454;BMP180;3260;52.438;13.502;2023-04-24T16:47:22;99625.00;;;16.30
6454;BMP180;3260;52.438;13.502;2023-04-24T16:49:50;99620.00;;;16.30
6454;BMP180;3260;52.438;13.502;2023-04-24T16:52:19;99635.00;;;16.30
6454;BMP180;3260;52.438;13.502;2023-04-24T16:54:47;99629.00;;;16.20
6454;BMP180;3260;52.438;13.502;2023-04-24T16:57:15;99651.00;;;15.80
6454;BMP180;3260;52.438;13.502;2023-04-24T16:59:43;99643.00;;;15.00
6454;BMP180;3260;52.438;13.502;2023-04-24T17:02:11;99663.00;;;14.70
6454;BMP180;3260;52.438;13.502;2023-04-24T17:04:41;99657.00;;;14.60
6454;BMP180;3260;52.438;13.502;2023-04-24T17:07:09;99674.00;;;14.30
6454;BMP180;3260;52.438;13.502;2023-04-24T17:09:37;99665.00;;;14.10
6454;BMP180;3260;52.438;13.502;2023-04-24T17:12:06;99665.00;;;13.80
6454;BMP180;3260;52.438;13.502;2023-04-24T17:14:34;99685.00;;;14.00
6454;BMP180;3260;52.438;13.502;2023-04-24T17:17:02;99682.00;;;13.80
6454;BMP180;3260;52.438;13.502;2023-04-24T17:19:31;99681.00;;;13.90
6454;BMP180;3260;52.438;13.502;2023-04-24T17:22:00;99681.00;;;14.10
6454;BMP180;3260;52.438;13.502;2023-04-24T17:24:32;99706.00;;;14.10
6454;BMP180;3260;52.438;13.502;2023-04-24T17:27:01;99673.00;;;13.90
6454;BMP180;3260;52.438;13.502;2023-04-24T17:29:41;99696.00;;;13.50
6454;BMP180;3260;52.438;13.502;2023-04-24T17:32:09;99692.00;;;13.40
6454;BMP180;3260;52.438;13.502;2023-04-24T17:34:37;99708.00;;;13.30
6454;BMP180;3260;52.438;13.502;2023-04-24T17:37:07;99735.00;;;13.80
6454;BMP180;3260;52.438;13.502;2023-04-24T17:39:35;99713.00;;;14.40
6454;BMP180;3260;52.438;13.502;2023-04-24T17:42:04;99749.00;;;14.30
6454;BMP180;3260;52.438;13.502;2023-04-24T17:44:33;99735.00;;;14.10
6454;BMP180;3260;52.438;13.502;2023-04-24T17:47:02;99740.00;;;14.10
6454;BMP180;3260;52.438;13.502;2023-04-24T17:49:31;99735.00;;;13.80
6454;BMP180;3260;52.438;13.502;2023-04-24T17:52:00;99737.00;;;13.40
6454;BMP180;3260;52.438;13.502;2023-04-24T17:54:29;99738.00;;;13.10
6454;BMP180;3260;52.438;13.502;2023-04-24T17:56:57;99747.00;;;13.20
6454;BMP180;3260;52.438;13.502;2023-04-24T17:59:26;99737.00;;;13.30
6454;BMP180;3260;52.438;13.502;2023-04-24T18:01:54;99737.00;;;13.00
6454;BMP180;3260;52.438;13.502;2023-04-24T18:04:24;99754.00;;;12.80
6454;BMP180;3260;52.438;13.502;2023-04-24T18:06:52;99755.00;;;12.60
6454;BMP180;3260;52.438;13.502;2023-04-24T18:09:21;99752.00;;;12.40
6454;BMP180;3260;52.438;13.502;2023-04-24T18:11:50;99765.00;;;12.30
6454;BMP180;3260;52.438;13.502;2023-04-24T18:14:19;99782.00;;;12.20
6454;BMP180;3260;52.438;13.502;2023-04-24T18:16:47;99759.00;;;12.20
6454;BMP180;3260;52.438;13.502;2023-04-24T18:19:15;99771.00;;;12.30
6454;BMP180;3260;52.438;13.502;2023-04-24T18:21:43;99804.00;;;12.30
6454;BMP180;3260;52.438;13.502;2023-04-24T18:24:11;99786.00;;;12.10
6454;BMP180;3260;52.438;13.502;2023-04-24T18:26:39;99796.00;;;12.20
6454;BMP180;3260;52.438;13.502;2023-04-24T18:29:09;99789.00;;;12.20
6454;BMP180;3260;52.438;13.502;2023-04-24T18:31:38;99801.00;;;11.90
6454;BMP180;3260;52.438;13.502;2023-04-24T18:34:06;99819.00;;;11.90
6454;BMP180;3260;52.438;13.502;2023-04-24T18:36:34;99792.00;;;11.70